Flight Track Log - Related Links

Times and Time Zones

All times are in EDT time to prevent confusion due to time zone crossing. See the N343GC flight status page for this flight to view local times or setup timezone preferences in your user account.

Time Position Orientation Groundspeed Altitude Reporting Facility
EDT Latitude Longitude Course Direction KTS MPH feet Rate Location/Type
Thu 01:18:47 PM 47.5031 -122.2794 150° Southeast 109 125 600  Level Seattle Center
Thu 01:20:07 PM 47.4658 -122.2475 149° Southeast 114 131 1,700 868 Climbing Seattle Center
Thu 01:21:19 PM 47.4342 -122.2192 249° West 110 127 2,800 898 Climbing Seattle Center
Thu 01:22:14 PM 47.4253 -122.2536 291° West 127 146 3,600 831 Climbing Seattle Center
Thu 01:23:29 PM 47.4414 -122.3172 309° West 130 150 4,600 701 Climbing Seattle Center
Thu 01:24:31 PM 47.4619 -122.3550 343° North 127 146 5,200 780 Climbing Seattle Center
Thu 01:25:32 PM 47.5092 -122.3761 300° West 149 171 6,200 885 Climbing Seattle Center
Thu 01:26:33 PM 47.5278 -122.4236 282° West 135 155 7,000 738 Climbing Seattle Center
Thu 01:27:34 PM 47.5364 -122.4814 284° West 132 152 7,700 689 Climbing Seattle Center
Thu 01:28:35 PM 47.5450 -122.5336 296° West 134 154 8,400 590 Climbing Seattle Center
Thu 01:29:36 PM 47.5619 -122.5847 297° West 139 160 8,900 590 Climbing Seattle Center
Thu 01:30:37 PM 47.5792 -122.6344 297° West 137 158 9,600 590 Climbing Seattle Center
Thu 01:31:38 PM 47.5972 -122.6869 299° West 134 154 10,100 492 Climbing Seattle Center
Thu 01:32:39 PM 47.6156 -122.7364 338° Northwest 136 157 10,600 443 Climbing Seattle Center
Thu 01:33:40 PM 47.6544 -122.7600 336° Northwest 147 169 11,000 393 Climbing Seattle Center
Thu 01:34:41 PM 47.6914 -122.7850 336° Northwest 146 168 11,400 393 Climbing Seattle Center
Thu 01:35:42 PM 47.7281 -122.8092 336° Northwest 145 167 11,800 295 Climbing Seattle Center
Thu 01:36:43 PM 47.7686 -122.8364 335° Northwest 147 169 12,000 98 Climbing Seattle Center
Thu 01:37:45 PM 47.8094 -122.8644 336° Northwest 158 182 12,000  Level Seattle Center
Thu 01:38:46 PM 47.8522 -122.8931 336° Northwest 166 191 12,000  Level Seattle Center
Thu 01:39:47 PM 47.8944 -122.9211 336° Northwest 166 191 12,000  Level Seattle Center
Thu 01:40:48 PM 47.9406 -122.9517 336° Northwest 168 193 12,000  Level Seattle Center
Thu 01:41:48 PM 47.9828 -122.9800 336° Northwest 167 192 12,000  Level Seattle Center
Thu 01:42:49 PM 48.0258 -123.0092 335° Northwest 170 196 12,000  Level Seattle Center
Thu 01:43:50 PM 48.0706 -123.0400 336° Northwest 174 200 12,000  Level Seattle Center
Thu 01:44:51 PM 48.1147 -123.0689 337° Northwest 174 200 12,000  Level Seattle Center
Thu 01:45:52 PM 48.1625 -123.1000 335° Northwest 174 200 12,000 49 Level Seattle Center
Thu 01:46:53 PM 48.2061 -123.1300 335° Northwest 174 200 12,100 197 Climbing Seattle Center
Thu 01:47:54 PM 48.2472 -123.1589 323° Northwest 167 192 12,400 313 Climbing Seattle Center
Thu 01:49:07 PM 48.2833 -123.2000 342° North 160 184 12,800 316 Climbing Vancouver Center
Thu 01:50:07 PM 48.3167 -123.2167 326° Northwest 160 184 13,100 300 Climbing Vancouver Center
Thu 01:51:07 PM 48.3500 -123.2500 348° North 160 184 13,400 300 Climbing Vancouver Center
Thu 01:52:07 PM 48.4000 -123.2667 326° Northwest 160 184 13,700 300 Climbing Vancouver Center
Thu 01:53:07 PM 48.4333 -123.3000 348° North 160 184 14,000 200 Climbing Vancouver Center
Thu 01:54:07 PM 48.4833 -123.3167 326° Northwest 170 196 14,100 50 Climbing Vancouver Center
Thu 01:55:07 PM 48.5333 -123.3667 327° Northwest 180 207 14,100  Level Vancouver Center
Thu 01:56:07 PM 48.5667 -123.4000 348° North 170 196 14,100  Level Vancouver Center
Thu 01:57:07 PM 48.6167 -123.4167 336° Northwest 180 207 14,100  Level Vancouver Center
Thu 01:58:07 PM 48.6667 -123.4500 315° West 180 207 14,100  Level Vancouver Center
Thu 01:59:07 PM 48.7000 -123.5000 348° North 180 207 14,100  Level Vancouver Center
Thu 02:00:07 PM 48.7500 -123.5167 315° West 170 196 14,100  Level Vancouver Center
Thu 02:01:07 PM 48.7833 -123.5667 336° Northwest 170 196 14,100  Level Vancouver Center
Thu 02:02:07 PM 48.8333 -123.6000 315° West 180 207 14,100  Level Vancouver Center
Thu 02:03:07 PM 48.8667 -123.6500 348° North 180 207 14,100  Level Vancouver Center
Thu 02:04:07 PM 48.9167 -123.6667 315° West 180 207 14,100  Level Vancouver Center
Thu 02:05:07 PM 48.9500 -123.7167 327° Northwest 180 207 14,100  Level Vancouver Center
Thu 02:06:07 PM 49.0000 -123.7667 327° Northwest 170 196 14,100  Level Vancouver Center
Thu 02:07:07 PM 49.0333 -123.8000 327° Northwest 180 207 14,100  Level Vancouver Center
Thu 02:08:07 PM 49.0833 -123.8500 327° Northwest 170 196 14,100  Level Vancouver Center
Thu 02:09:07 PM 49.1167 -123.8833 316° Northwest 180 207 14,100  Level Vancouver Center
Thu 02:10:07 PM 49.1500 -123.9333 348° North 170 196 14,100 -50 Level Vancouver Center
Thu 02:11:07 PM 49.2000 -123.9500 316° Northwest 170 196 14,000 -50 Descending Vancouver Center
Thu 02:12:07 PM 49.2333 -124.0000 336° Northwest 170 196 14,000  Level Vancouver Center
Thu 02:13:07 PM 49.2833 -124.0333 316° Northwest 170 196 14,000  Level Vancouver Center
Thu 02:14:07 PM 49.3167 -124.0833 327° Northwest 180 207 14,000  Level Vancouver Center
Thu 02:15:07 PM 49.3667 -124.1333 327° Northwest 180 207 14,000  Level Vancouver Center
Thu 02:16:07 PM 49.4000 -124.1667 327° Northwest 180 207 14,000  Level Vancouver Center
Thu 02:17:07 PM 49.4500 -124.2167 342° North 170 196 14,000  Level Vancouver Center
Thu 02:18:07 PM 49.4833 -124.2333 327° Northwest 180 207 14,000  Level Vancouver Center
Thu 02:19:07 PM 49.5333 -124.2833 327° Northwest 180 207 14,000  Level Vancouver Center
Thu 02:20:07 PM 49.5667 -124.3167 327° Northwest 180 207 14,000  Level Vancouver Center
Thu 02:21:07 PM 49.6167 -124.3667 316° Northwest 180 207 14,000  Level Vancouver Center
Thu 02:22:07 PM 49.6500 -124.4167 337° Northwest 180 207 14,000  Level Vancouver Center
Thu 02:23:07 PM 49.7000 -124.4500 316° Northwest 170 196 14,000  Level Vancouver Center
Thu 02:24:07 PM 49.7333 -124.5000 342° North 180 207 14,000  Level Vancouver Center
Thu 02:25:07 PM 49.7667 -124.5167 319° Northwest 170 196 14,000  Level Vancouver Center
Thu 02:26:07 PM 49.8167 -124.5833 342° North 170 196 14,000  Level Vancouver Center
Thu 02:27:07 PM 49.8500 -124.6000 327° Northwest 170 196 14,000  Level Vancouver Center
Thu 02:28:07 PM 49.9000 -124.6500 316° Northwest 170 196 14,000  Level Vancouver Center
Thu 02:29:07 PM 49.9333 -124.7000 327° Northwest 170 196 14,000  Level Vancouver Center
Thu 02:30:07 PM 49.9667 -124.7333 327° Northwest 170 196 14,000  Level Vancouver Center
Thu 02:31:07 PM 50.0167 -124.7833 327° Northwest 170 196 14,000  Level Vancouver Center
Thu 02:32:07 PM 50.0500 -124.8167 327° Northwest 170 196 14,000  Level Vancouver Center
Thu 02:33:07 PM 50.1000 -124.8667 327° Northwest 170 196 14,000  Level Vancouver Center
Thu 02:34:07 PM 50.1333 -124.9000 316° Northwest 170 196 14,000  Level Vancouver Center
Thu 02:35:07 PM 50.1667 -124.9500 348° North 170 196 14,000  Level Vancouver Center
Thu 02:36:07 PM 50.2167 -124.9667 308° West 170 196 14,000  Level Vancouver Center
Thu 02:37:07 PM 50.2500 -125.0333 316° Northwest 170 196 14,000  Level Vancouver Center
Thu 02:38:07 PM 50.2833 -125.0833 316° Northwest 170 196 14,000  Level Vancouver Center
Thu 02:39:07 PM 50.3167 -125.1333 316° Northwest 170 196 14,000  Level Vancouver Center
Thu 02:40:07 PM 50.3500 -125.1833 316° Northwest 170 196 14,000  Level Vancouver Center
Thu 02:41:07 PM 50.3833 -125.2333 320° Northwest 170 196 14,000  Level Vancouver Center
Thu 02:42:07 PM 50.4333 -125.3000 316° Northwest 170 196 14,000  Level Vancouver Center
Thu 02:43:07 PM 50.4667 -125.3500 316° Northwest 170 196 14,000  Level Vancouver Center
Thu 02:44:07 PM 50.5000 -125.4000 316° Northwest 170 196 14,000  Level Vancouver Center
Thu 02:45:07 PM 50.5333 -125.4500 316° Northwest 170 196 14,000  Level Vancouver Center
Thu 02:46:07 PM 50.5667 -125.5000 308° West 170 196 14,000  Level Vancouver Center
Thu 02:47:07 PM 50.6000 -125.5667 316° Northwest 170 196 14,000  Level Vancouver Center
Thu 02:48:07 PM 50.6333 -125.6167 316° Northwest 170 196 14,000  Level Vancouver Center
Thu 02:49:07 PM 50.6667 -125.6667 316° Northwest 170 196 14,000  Level Vancouver Center
Thu 02:50:07 PM 50.7000 -125.7167 308° West 180 207 14,000  Level Vancouver Center
Thu 02:51:07 PM 50.7333 -125.7833 317° Northwest 170 196 14,000  Level Vancouver Center
Thu 02:52:07 PM 50.7667 -125.8333 328° Northwest 170 196 14,000  Level Vancouver Center
Thu 02:53:07 PM 50.8000 -125.8667 308° West 170 196 14,000  Level Vancouver Center
Thu 02:54:07 PM 50.8333 -125.9333 308° West 170 196 14,000  Level Vancouver Center
Thu 02:55:07 PM 50.8667 -126.0000 342° North 170 196 14,000  Level Vancouver Center
Thu 02:56:07 PM 50.9000 -126.0167 308° West 170 196 14,000  Level Vancouver Center
Thu 02:57:07 PM 50.9333 -126.0833 317° Northwest 170 196 14,000  Level Vancouver Center
Thu 02:58:07 PM 50.9667 -126.1333 317° Northwest 170 196 14,000  Level Vancouver Center
Thu 02:59:07 PM 51.0000 -126.1833 317° Northwest 170 196 14,000  Level Vancouver Center
Thu 03:00:07 PM 51.0333 -126.2333 309° West 170 196 14,000  Level Vancouver Center
Thu 03:01:07 PM 51.0667 -126.3000 328° Northwest 170 196 14,000  Level Vancouver Center
Thu 03:02:07 PM 51.1167 -126.3500 317° Northwest 170 196 14,000  Level Vancouver Center
Thu 03:03:07 PM 51.1500 -126.4000 309° West 170 196 14,000  Level Vancouver Center
Thu 03:04:07 PM 51.1833 -126.4667 317° Northwest 170 196 14,000  Level Vancouver Center
Thu 03:05:07 PM 51.2167 -126.5167 317° Northwest 170 196 14,000  Level Vancouver Center
Thu 03:06:07 PM 51.2500 -126.5667 309° West 170 196 14,000  Level Vancouver Center
Thu 03:07:07 PM 51.2833 -126.6333 298° West 180 207 14,000  Level Vancouver Center
Thu 03:08:07 PM 51.3000 -126.6833 328° Northwest 180 207 14,000  Level Vancouver Center
Thu 03:09:07 PM 51.3500 -126.7333 309° West 180 207 14,000  Level Vancouver Center
Thu 03:10:07 PM 51.3833 -126.8000 317° Northwest 180 207 14,000  Level Vancouver Center
Thu 03:11:07 PM 51.4167 -126.8500 317° Northwest 180 207 14,000  Level Vancouver Center
Thu 03:12:07 PM 51.4500 -126.9000 303° West 180 207 14,000  Level Vancouver Center
Thu 03:13:07 PM 51.4833 -126.9833 309° West 180 207 14,000  Level Vancouver Center
Thu 03:14:07 PM 51.5167 -127.0500 343° North 180 207 14,000  Level Vancouver Center
Thu 03:15:07 PM 51.5500 -127.0667 309° West 180 207 14,000  Level Vancouver Center
Thu 03:16:07 PM 51.6000 -127.1667 343° North 180 207 14,000  Level Vancouver Center
Thu 03:17:07 PM 51.6333 -127.1833 303° West 180 207 14,000 50 Level Vancouver Center
Thu 03:18:07 PM 51.6667 -127.2667 292° West 180 207 14,100 50 Climbing Vancouver Center
Thu 03:19:07 PM 51.6833 -127.3333 317° Northwest 180 207 14,100  Level Vancouver Center
Thu 03:20:07 PM 51.7167 -127.3833 317° Northwest 180 207 14,100  Level Vancouver Center
Thu 03:21:07 PM 51.7500 -127.4333 321° Northwest 180 207 14,100  Level Vancouver Center
Thu 03:22:07 PM 51.8000 -127.5000 317° Northwest 180 207 14,100  Level Vancouver Center
Thu 03:23:07 PM 51.8333 -127.5500 309° West 180 207 14,100  Level Vancouver Center
Thu 03:24:07 PM 51.8667 -127.6167 317° Northwest 180 207 14,100  Level Vancouver Center
Thu 03:25:07 PM 51.9000 -127.6667 317° Northwest 180 207 14,100  Level Vancouver Center
Thu 03:26:07 PM 51.9333 -127.7167 309° West 180 207 14,100  Level Vancouver Center
Thu 03:27:07 PM 51.9667 -127.7833 328° Northwest 180 207 14,100  Level Vancouver Center
Thu 03:28:07 PM 52.0167 -127.8333 292° West 180 207 14,100  Level Vancouver Center
Thu 03:29:07 PM 52.0333 -127.9000 317° Northwest 180 207 14,100  Level Vancouver Center
Thu 03:30:07 PM 52.0667 -127.9500 309° West 180 207 14,100  Level Vancouver Center
Thu 03:31:07 PM 52.1000 -128.0167 317° Northwest 180 207 14,100  Level Vancouver Center
Thu 03:32:07 PM 52.1333 -128.0667 309° West 180 207 14,100  Level Vancouver Center
Thu 03:33:07 PM 52.1667 -128.1333 329° Northwest 180 207 14,100  Level Vancouver Center
Thu 03:34:07 PM 52.2167 -128.1833 338° Northwest 180 207 14,100  Level Vancouver Center
Thu 03:35:07 PM 52.2667 -128.2167 329° Northwest 180 207 14,100  Level Vancouver Center
Thu 03:36:07 PM 52.3000 -128.2500 329° Northwest 180 207 14,100  Level Vancouver Center
Thu 03:37:07 PM 52.3500 -128.3000 329° Northwest 170 196 14,100  Level Vancouver Center
Thu 03:38:07 PM 52.3833 -128.3333 309° West 170 196 14,100  Level Vancouver Center
Thu 03:39:07 PM 52.4167 -128.4000 329° Northwest 170 196 14,100  Level Vancouver Center
Thu 03:40:07 PM 52.4500 -128.4333 329° Northwest 170 196 14,100  Level Vancouver Center
Thu 03:41:07 PM 52.5000 -128.4833 329° Northwest 170 196 14,100  Level Vancouver Center
Thu 03:42:07 PM 52.5333 -128.5167 338° Northwest 170 196 14,100  Level Vancouver Center
Thu 03:43:07 PM 52.5833 -128.5500 309° West 170 196 14,100  Level Vancouver Center
Thu 03:44:07 PM 52.6167 -128.6167 338° Northwest 170 196 14,100  Level Vancouver Center
Thu 03:45:07 PM 52.6667 -128.6500 318° Northwest 170 196 14,100 -50 Level Vancouver Center
Thu 03:46:07 PM 52.7000 -128.7000 338° Northwest 180 207 14,000 -50 Descending Vancouver Center
Thu 03:47:07 PM 52.7500 -128.7333 292° West 180 207 14,000  Level Vancouver Center
Thu 03:48:07 PM 52.7667 -128.8000 338° Northwest 180 207 14,000  Level Vancouver Center
Thu 03:49:07 PM 52.8167 -128.8333 338° Northwest 170 196 14,000  Level Vancouver Center
Thu 03:50:07 PM 52.8667 -128.8667 318° Northwest 180 207 14,000  Level Vancouver Center
Thu 03:51:07 PM 52.9000 -128.9167 338° Northwest 170 196 14,000  Level Vancouver Center
Thu 03:52:07 PM 52.9500 -128.9500 310° West 170 196 14,000  Level Vancouver Center
Thu 03:53:07 PM 52.9833 -129.0167 338° Northwest 170 196 14,000  Level Vancouver Center
Thu 03:54:07 PM 53.0333 -129.0500 318° Northwest 180 207 14,000  Level Vancouver Center
Thu 03:55:07 PM 53.0667 -129.1000 338° Northwest 180 207 14,000  Level Vancouver Center
Thu 03:56:07 PM 53.1167 -129.1333 310° West 180 207 14,000  Level Vancouver Center
Thu 03:57:07 PM 53.1500 -129.2000 329° Northwest 180 207 14,000  Level Vancouver Center
Thu 03:58:07 PM 53.1833 -129.2333 321° Northwest 180 207 14,000  Level Vancouver Center
Thu 03:59:07 PM 53.2333 -129.3000 338° Northwest 180 207 14,000  Level Vancouver Center
Thu 04:00:07 PM 53.2833 -129.3333 318° Northwest 180 207 14,000  Level Vancouver Center
Thu 04:01:07 PM 53.3167 -129.3833 338° Northwest 180 207 14,000  Level Vancouver Center
Thu 04:02:07 PM 53.3667 -129.4167 310° West 180 207 14,000  Level Vancouver Center
Thu 04:03:07 PM 53.4000 -129.4833 338° Northwest 180 207 14,000  Level Vancouver Center
Thu 04:04:07 PM 53.4500 -129.5167 322° Northwest 180 207 14,000  Level Vancouver Center
Thu 04:05:07 PM 53.5000 -129.5833 310° West 180 207 14,000  Level Vancouver Center
Thu 04:06:07 PM 53.5167 -129.6167 322° Northwest 180 207 14,000  Level Vancouver Center
Thu 04:07:07 PM 53.5667 -129.6833 338° Northwest 180 207 14,000  Level Vancouver Center
Thu 04:08:07 PM 53.6167 -129.7167 318° Northwest 180 207 14,000  Level Vancouver Center
Thu 04:09:07 PM 53.6500 -129.7667 338° Northwest 180 207 14,000  Level Vancouver Center
Thu 04:10:07 PM 53.7000 -129.8000 322° Northwest 180 207 14,000  Level Vancouver Center
Thu 04:11:07 PM 53.7500 -129.8667 329° Northwest 180 207 14,000  Level Vancouver Center
Thu 04:12:07 PM 53.7833 -129.9000 310° West 180 207 14,000  Level Vancouver Center
Thu 04:13:07 PM 53.8167 -129.9667 329° Northwest 180 207 14,000  Level Vancouver Center
Thu 04:14:07 PM 53.8500 -130.0000 339° North 180 207 14,000  Level Vancouver Center
Thu 04:15:07 PM 53.9000 -130.0333 322° Northwest 180 207 14,000  Level Vancouver Center
Thu 04:16:07 PM 53.9500 -130.1000 330° Northwest 180 207 14,000  Level Vancouver Center
Thu 04:17:07 PM 53.9833 -130.1333 322° Northwest 180 207 14,000  Level Vancouver Center
Thu 04:18:07 PM 54.0333 -130.2000 330° Northwest 180 207 14,000  Level Vancouver Center
Thu 04:19:07 PM 54.0667 -130.2333 322° Northwest 180 207 14,000  Level Vancouver Center
Thu 04:20:07 PM 54.1167 -130.3000 310° West 180 207 14,000  Level Vancouver Center
Thu 04:21:07 PM 54.1333 -130.3333 330° Northwest 180 207 14,000  Level Vancouver Center
Thu 04:22:07 PM 54.1833 -130.3833 330° Northwest 180 207 14,000  Level Vancouver Center
Thu 04:23:07 PM 54.2333 -130.4333 319° Northwest 180 207 14,000  Level Vancouver Center
Thu 04:24:07 PM 54.2667 -130.4833 339° North 180 207 14,000  Level Vancouver Center
Thu 04:25:07 PM 54.3167 -130.5167 330° Northwest 180 207 14,000  Level Vancouver Center
Thu 04:26:07 PM 54.3667 -130.5667 319° Northwest 180 207 14,000  Level Vancouver Center
Thu 04:27:07 PM 54.4000 -130.6167 319° Northwest 180 207 14,000  Level Vancouver Center
Thu 04:28:07 PM 54.4333 -130.6667 319° Northwest 180 207 14,000  Level Vancouver Center
Thu 04:29:07 PM 54.4667 -130.7167 330° Northwest 180 207 14,000  Level Vancouver Center
Thu 04:30:07 PM 54.5167 -130.7667 330° Northwest 180 207 14,000 -350 Level Vancouver Center
Thu 04:31:07 PM 54.5667 -130.8167 330° Northwest 190 219 13,300 -750 Descending Vancouver Center
Thu 04:32:07 PM 54.6167 -130.8667 322° Northwest 200 230 12,500 -800 Descending Vancouver Center
Thu 04:33:07 PM 54.6667 -130.9333 30° Northeast 200 230 11,700 -780 Descending Vancouver Center
Thu 04:33:47 PM 54.6833 -130.9167 330° Northwest 200 230 11,200 -772 Descending Anchorage Center
Thu 04:34:48 PM 54.7333 -130.9667 305° West 190 219 10,400 -793 Descending Anchorage Center
Thu 04:35:48 PM 54.7667 -131.0500 322° Northwest 200 230 9,600 -843 Descending Anchorage Center
Thu 04:36:49 PM 54.8167 -131.1167 319° Northwest 200 230 8,700 -744 Descending Anchorage Center
Thu 04:37:49 PM 54.8500 -131.1667 311° West 190 219 8,100 -595 Descending Anchorage Center
Thu 04:38:50 PM 54.8833 -131.2333 311° West 180 207 7,500 -595 Descending Anchorage Center
Thu 04:39:50 PM 54.9167 -131.3000 311° West 180 207 6,900 -600 Descending Anchorage Center
Thu 04:40:50 PM 54.9500 -131.3667 319° Northwest 180 207 6,300 -229 Descending Anchorage Center
Thu 04:43:46 PM 55.0500 -131.5167 311° West 150 173 6,000 -76 Descending Anchorage Center
Thu 04:44:46 PM 55.0833 -131.5833 311° West 160 184 6,000  Level Anchorage Center
Thu 04:45:50 PM 55.1167 -131.6500 41° Northeast 160 184 6,000 -97 Level Vancouver Center
Thu 04:46:50 PM 55.1500 -131.6000 349° North 160 184 5,800 -800 Descending Vancouver Center
Thu 04:47:50 PM 55.2000 -131.6167 342° North 180 207 4,400 -1,400 Descending Vancouver Center
Thu 04:55:15 PM 55.3500 -131.7000 303° West  Level FlightAware Approximate
Thu 04:56:15 PM 55.3753 -131.7697 123° Southeast  Level Estimated
Thu 04:57:15 PM 55.3500 -131.7000 303° West  Level FlightAware Approximate
Thu 04:58:15 PM 55.3753 -131.7697 123° Southeast  Level Estimated
Thu 04:59:15 PM 55.3500 -131.7000 303° West  Level FlightAware Approximate
Thu 05:00:15 PM 55.3753 -131.7697 123° Southeast  Level Estimated
Thu 05:01:15 PM 55.3500 -131.7000 303° West  Level FlightAware Approximate
Thu 05:02:15 PM 55.3753 -131.7697 123° Southeast  Level Estimated
Thu 05:03:15 PM 55.3500 -131.7000 303° West  Level FlightAware Approximate
Thu 05:04:15 PM 55.3753 -131.7697 303° West  Level Estimated

Login

Don't have an account? Register now (free) for customized features, flight alerts, and more!